createdAt,value
2018-07-08T00:02:14.028Z,23.80
2018-07-08T00:04:42.721Z,23.90
2018-07-08T00:09:45.639Z,23.90
2018-07-08T00:12:14.332Z,24.00
2018-07-08T00:14:43.148Z,24.00
2018-07-08T00:17:12.092Z,23.90
2018-07-08T00:19:40.791Z,23.90
2018-07-08T00:22:10.556Z,24.00
2018-07-08T00:27:07.684Z,23.90
2018-07-08T00:29:36.565Z,23.90
2018-07-08T00:32:05.642Z,24.00
2018-07-08T00:34:34.328Z,23.90
2018-07-08T00:37:03.714Z,24.00
2018-07-08T00:39:32.521Z,24.00
2018-07-08T00:42:01.156Z,23.90
2018-07-08T00:44:29.843Z,23.80
2018-07-08T00:46:58.546Z,23.70
2018-07-08T00:49:27.300Z,23.60
2018-07-08T00:51:55.936Z,23.50
2018-07-08T00:54:24.640Z,23.40
2018-07-08T00:56:53.318Z,23.30
2018-07-08T00:59:21.980Z,23.20
2018-07-08T01:01:50.703Z,23.20
2018-07-08T01:04:19.364Z,23.10
2018-07-08T01:06:48.004Z,23.00
2018-07-08T01:09:16.699Z,22.90
2018-07-08T01:11:45.348Z,22.80
2018-07-08T01:14:13.992Z,22.80
2018-07-08T01:16:42.651Z,22.70
2018-07-08T01:19:11.316Z,22.60
2018-07-08T01:21:40.065Z,22.60
2018-07-08T01:24:08.731Z,22.50
2018-07-08T01:26:37.858Z,22.40
2018-07-08T01:29:06.567Z,22.30
2018-07-08T01:31:35.219Z,22.30
2018-07-08T01:34:03.888Z,22.20
2018-07-08T01:36:32.528Z,22.10
2018-07-08T01:39:01.180Z,22.00
2018-07-08T01:41:29.815Z,22.00
2018-07-08T01:43:58.482Z,21.90
2018-07-08T01:46:27.176Z,21.90
2018-07-08T01:48:55.792Z,21.90
2018-07-08T01:53:52.829Z,21.70
2018-07-08T01:56:21.625Z,21.70
2018-07-08T01:58:50.319Z,21.70
2018-07-08T02:01:19.106Z,21.60
2018-07-08T02:03:47.795Z,21.50
2018-07-08T02:06:16.471Z,21.40
2018-07-08T02:08:45.233Z,21.30
2018-07-08T02:11:13.914Z,21.20
2018-07-08T02:13:42.573Z,21.10
2018-07-08T02:16:11.997Z,21.10
2018-07-08T02:18:40.692Z,20.80
2018-07-08T02:21:09.444Z,20.80
2018-07-08T02:23:38.172Z,20.90
2018-07-08T02:26:07.116Z,20.80
2018-07-08T02:28:35.784Z,20.70
2018-07-08T02:31:04.502Z,20.70
2018-07-08T02:33:33.172Z,20.70
2018-07-08T02:36:01.921Z,20.70
2018-07-08T02:38:30.720Z,20.70
2018-07-08T02:40:59.564Z,20.70
2018-07-08T02:43:28.428Z,20.70
2018-07-08T02:45:57.535Z,20.60
2018-07-08T02:48:26.779Z,20.60
2018-07-08T02:50:55.560Z,20.60
2018-07-08T02:53:24.427Z,20.70
2018-07-08T02:55:53.044Z,20.60
2018-07-08T02:58:26.563Z,20.50
2018-07-08T03:00:55.201Z,20.40
2018-07-08T03:03:23.859Z,20.30
2018-07-08T03:05:52.468Z,20.20
2018-07-08T03:08:21.084Z,20.10
2018-07-08T03:10:49.712Z,20.10
2018-07-08T03:13:18.409Z,20.10
2018-07-08T03:15:47.055Z,20.00
2018-07-08T03:18:15.664Z,19.90
2018-07-08T03:20:44.383Z,19.90
2018-07-08T03:23:13.035Z,19.90
2018-07-08T03:25:41.669Z,19.80
2018-07-08T03:28:10.323Z,19.70
2018-07-08T03:30:39.012Z,19.70
2018-07-08T03:33:07.878Z,19.60
2018-07-08T03:35:36.516Z,19.60
2018-07-08T03:38:05.136Z,19.50
2018-07-08T03:40:33.779Z,19.40
2018-07-08T03:43:02.401Z,19.40
2018-07-08T03:45:31.040Z,19.40
2018-07-08T03:47:59.663Z,19.30
2018-07-08T03:50:28.315Z,19.40
2018-07-08T03:52:56.929Z,19.30
2018-07-08T03:55:25.612Z,19.30
2018-07-08T03:57:54.228Z,19.20
2018-07-08T04:00:22.877Z,19.10
2018-07-08T04:05:19.792Z,19.20
2018-07-08T04:07:48.463Z,19.20
2018-07-08T04:10:17.087Z,19.10
2018-07-08T04:12:45.699Z,19.10
2018-07-08T04:15:14.380Z,19.00
2018-07-08T04:17:42.976Z,19.00
2018-07-08T04:20:11.644Z,19.00
2018-07-08T04:22:40.291Z,18.90
2018-07-08T04:25:08.920Z,19.00
2018-07-08T04:27:37.551Z,18.90
2018-07-08T04:30:06.353Z,18.80
2018-07-08T04:32:34.961Z,18.80
2018-07-08T04:35:03.725Z,18.70
2018-07-08T04:37:32.329Z,18.70
2018-07-08T04:40:01.008Z,18.70
2018-07-08T04:42:29.711Z,18.80
2018-07-08T04:44:58.335Z,18.90
2018-07-08T04:47:27.060Z,19.00
2018-07-08T04:49:55.759Z,19.10
2018-07-08T04:52:24.387Z,19.10
2018-07-08T04:54:53.057Z,19.20
2018-07-08T04:57:21.812Z,19.20
2018-07-08T04:59:50.503Z,19.20
2018-07-08T05:02:19.120Z,19.30
2018-07-08T05:04:47.803Z,19.30
2018-07-08T05:07:16.432Z,19.40
2018-07-08T05:09:45.103Z,19.40
2018-07-08T05:12:13.731Z,19.50
2018-07-08T05:14:42.386Z,19.70
2018-07-08T05:17:11.369Z,19.60
2018-07-08T05:19:40.044Z,19.70
2018-07-08T05:22:08.761Z,19.80
2018-07-08T05:24:37.424Z,19.90
2018-07-08T05:27:06.065Z,19.90
2018-07-08T05:29:34.711Z,20.00
2018-07-08T05:32:03.445Z,20.10
2018-07-08T05:34:32.067Z,20.30
2018-07-08T05:37:00.735Z,20.30
2018-07-08T05:39:29.372Z,20.40
2018-07-08T05:41:58.006Z,20.60
2018-07-08T05:44:26.652Z,20.70
2018-07-08T05:46:55.296Z,20.80
2018-07-08T05:49:23.920Z,21.00
2018-07-08T05:51:52.578Z,21.10
2018-07-08T05:54:21.307Z,21.30
2018-07-08T05:56:50.008Z,21.50
2018-07-08T05:59:18.711Z,21.80
2018-07-08T06:01:47.377Z,22.40
2018-07-08T06:04:16.033Z,23.10
2018-07-08T06:06:44.680Z,23.80
2018-07-08T06:09:13.324Z,24.40
2018-07-08T06:14:10.252Z,25.60
2018-07-08T06:16:38.912Z,26.20
2018-07-08T06:19:07.524Z,26.70
2018-07-08T06:21:36.144Z,27.20
2018-07-08T06:24:04.843Z,27.80
2018-07-08T06:26:33.476Z,28.10
2018-07-08T06:29:02.124Z,28.50
2018-07-08T06:31:30.777Z,28.80
2018-07-08T06:33:59.409Z,29.30
2018-07-08T06:36:28.076Z,29.80
2018-07-08T06:39:00.172Z,30.20
2018-07-08T06:41:28.975Z,30.50
2018-07-08T06:43:57.604Z,30.80
2018-07-08T06:46:29.444Z,31.20
2018-07-08T06:49:04.775Z,31.50
2018-07-08T06:51:35.193Z,31.90
2018-07-08T06:54:06.049Z,32.20
2018-07-08T06:56:36.983Z,32.10
2018-07-08T06:59:08.937Z,32.90
2018-07-08T07:01:38.369Z,33.00
2018-07-08T07:04:07.155Z,33.20
2018-07-08T07:06:35.977Z,33.40
2018-07-08T07:09:07.689Z,33.50
2018-07-08T07:11:42.836Z,33.70
2018-07-08T07:14:16.116Z,33.60
2018-07-08T07:16:45.986Z,33.60
2018-07-08T07:19:22.013Z,33.60
2018-07-08T07:21:51.660Z,33.50
2018-07-08T07:24:23.404Z,33.30
2018-07-08T07:26:53.732Z,33.40
2018-07-08T07:29:23.935Z,33.50
2018-07-08T07:31:53.336Z,33.30
2018-07-08T07:34:22.076Z,33.40
2018-07-08T07:36:53.045Z,33.40
2018-07-08T07:39:24.557Z,33.40
2018-07-08T07:41:53.186Z,33.50
2018-07-08T07:44:21.844Z,33.60
2018-07-08T07:46:50.553Z,33.60
2018-07-08T07:49:19.184Z,33.70
2018-07-08T07:51:47.822Z,33.80
2018-07-08T07:54:16.639Z,33.80
2018-07-08T07:56:45.303Z,33.80
2018-07-08T07:59:13.956Z,33.70
2018-07-08T08:01:42.679Z,33.60
2018-07-08T08:04:11.329Z,33.40
2018-07-08T08:06:40.001Z,33.20
2018-07-08T08:09:08.663Z,33.20
2018-07-08T08:11:37.346Z,33.10
2018-07-08T08:14:06.429Z,33.20
2018-07-08T08:16:35.123Z,33.30
2018-07-08T08:19:03.849Z,33.30
2018-07-08T08:21:32.570Z,33.40
2018-07-08T08:24:01.486Z,33.20
2018-07-08T08:26:30.973Z,33.10
2018-07-08T08:28:59.541Z,33.00
2018-07-08T08:31:28.428Z,33.10
2018-07-08T08:35:13.517Z,33.10
2018-07-08T08:37:43.441Z,33.20
2018-07-08T08:40:12.805Z,33.10
2018-07-08T08:42:41.468Z,33.10
2018-07-08T08:45:11.424Z,33.10
2018-07-08T08:47:40.063Z,33.10
2018-07-08T08:50:19.994Z,33.20
2018-07-08T08:52:51.408Z,33.20
2018-07-08T08:55:20.123Z,33.20
2018-07-08T08:57:48.748Z,33.10
2018-07-08T09:00:18.510Z,33.00
2018-07-08T09:02:51.464Z,33.00
2018-07-08T09:05:23.288Z,32.90
2018-07-08T09:07:52.625Z,33.00
2018-07-08T09:10:21.296Z,33.00
2018-07-08T09:12:49.952Z,33.00
2018-07-08T09:17:54.136Z,33.00
2018-07-08T09:20:23.432Z,33.00
2018-07-08T09:22:52.191Z,33.10
2018-07-08T09:25:21.159Z,33.10
2018-07-08T09:27:50.048Z,33.20
2018-07-08T09:30:18.760Z,33.20
2018-07-08T09:32:47.404Z,33.00
2018-07-08T09:35:16.063Z,33.10
2018-07-08T09:37:44.692Z,33.00
2018-07-08T09:40:16.878Z,33.20
2018-07-08T09:42:45.506Z,33.20
2018-07-08T09:45:14.123Z,33.20
2018-07-08T09:47:42.721Z,33.10
2018-07-08T09:50:11.369Z,33.20
2018-07-08T09:52:40.058Z,33.40
2018-07-08T09:55:08.663Z,33.50
2018-07-08T09:57:37.302Z,33.70
2018-07-08T10:00:06.219Z,33.80
2018-07-08T10:02:34.907Z,33.80
2018-07-08T10:05:03.575Z,33.90
2018-07-08T10:07:32.175Z,34.00
2018-07-08T10:10:00.800Z,34.10
2018-07-08T10:12:29.516Z,34.40
2018-07-08T10:14:58.117Z,34.40
2018-07-08T10:17:26.780Z,34.50
2018-07-08T10:19:55.788Z,34.80
2018-07-08T10:22:24.113Z,34.80
2018-07-08T10:24:52.737Z,35.00
2018-07-08T10:28:28.938Z,35.10
2018-07-08T10:30:58.585Z,35.10
2018-07-08T10:33:31.767Z,35.00
2018-07-08T10:36:03.478Z,35.00
2018-07-08T10:38:32.464Z,35.30
2018-07-08T10:41:01.140Z,35.30
2018-07-08T10:43:29.940Z,35.20
2018-07-08T10:45:59.038Z,35.30
2018-07-08T10:48:27.688Z,35.20
2018-07-08T10:50:56.664Z,35.30
2018-07-08T10:53:25.430Z,35.40
2018-07-08T10:55:54.130Z,35.60
2018-07-08T11:00:51.689Z,35.60
2018-07-08T11:03:20.321Z,35.70
2018-07-08T11:05:48.985Z,35.80
2018-07-08T11:08:17.657Z,35.90
2018-07-08T11:10:46.643Z,35.90
2018-07-08T11:13:15.328Z,36.00
2018-07-08T11:15:44.028Z,36.10
2018-07-08T11:18:12.636Z,36.10
2018-07-08T11:20:41.375Z,36.20
2018-07-08T11:23:10.002Z,36.30
2018-07-08T11:25:38.674Z,36.30
2018-07-08T11:28:08.132Z,36.40
2018-07-08T11:30:37.628Z,36.40
2018-07-08T11:33:06.766Z,36.30
2018-07-08T11:35:35.404Z,36.50
2018-07-08T11:38:04.096Z,36.60
2018-07-08T11:40:32.760Z,36.70
2018-07-08T11:43:01.480Z,36.70
2018-07-08T11:45:30.208Z,36.80
2018-07-08T11:47:58.853Z,36.70
2018-07-08T11:50:27.491Z,36.80
2018-07-08T11:52:56.128Z,36.70
2018-07-08T11:55:24.818Z,36.60
2018-07-08T11:57:53.411Z,36.70
2018-07-08T12:00:22.048Z,36.80
2018-07-08T12:02:50.754Z,36.70
2018-07-08T12:05:19.400Z,36.90
2018-07-08T12:07:48.034Z,36.80
2018-07-08T12:10:16.721Z,36.80
2018-07-08T12:12:45.495Z,36.70
2018-07-08T12:15:15.766Z,36.70
2018-07-08T12:17:44.781Z,36.70
2018-07-08T12:20:13.733Z,36.60
2018-07-08T12:22:42.619Z,36.60
2018-07-08T12:25:11.869Z,36.70
2018-07-08T12:27:40.627Z,36.80
2018-07-08T12:30:10.652Z,36.90
2018-07-08T12:32:40.539Z,37.00
2018-07-08T12:35:10.956Z,36.90
2018-07-08T12:37:51.317Z,36.90
2018-07-08T12:40:20.036Z,37.10
2018-07-08T12:43:24.612Z,37.10
2018-07-08T12:45:54.371Z,37.10
2018-07-08T12:48:23.076Z,36.90
2018-07-08T12:50:52.087Z,37.00
2018-07-08T12:53:20.747Z,37.10
2018-07-08T12:55:52.798Z,37.20
2018-07-08T12:58:21.900Z,37.30
2018-07-08T13:00:51.508Z,37.30
2018-07-08T13:03:20.441Z,37.30
2018-07-08T13:05:49.088Z,37.10
2018-07-08T13:08:17.732Z,37.20
2018-07-08T13:10:47.121Z,37.20
2018-07-08T13:13:15.788Z,37.20
2018-07-08T13:18:20.588Z,37.20
2018-07-08T13:20:49.232Z,37.20
2018-07-08T13:23:17.883Z,37.10
2018-07-08T13:28:14.953Z,37.00
2018-07-08T13:30:43.581Z,37.10
2018-07-08T13:33:12.772Z,37.10
2018-07-08T13:35:41.483Z,37.10
2018-07-08T13:38:10.145Z,36.80
2018-07-08T13:40:38.833Z,36.80
2018-07-08T13:43:07.985Z,36.80
2018-07-08T13:48:05.915Z,36.70
2018-07-08T13:50:34.530Z,36.80
2018-07-08T13:53:03.371Z,36.70
2018-07-08T13:55:32.053Z,36.70
2018-07-08T13:58:01.016Z,36.60
2018-07-08T14:02:57.911Z,36.50
2018-07-08T14:05:26.644Z,36.60
2018-07-08T14:07:55.435Z,36.50
2018-07-08T14:10:28.201Z,36.50
2018-07-08T14:13:01.264Z,36.60
2018-07-08T14:15:30.032Z,36.60
2018-07-08T14:17:58.716Z,36.60
2018-07-08T14:20:27.401Z,36.70
2018-07-08T14:22:56.060Z,36.60
2018-07-08T14:25:24.700Z,36.50
2018-07-08T14:27:53.448Z,36.50
2018-07-08T14:30:22.064Z,36.50
2018-07-08T14:32:50.809Z,36.40
2018-07-08T14:35:19.444Z,36.40
2018-07-08T14:37:48.074Z,36.30
2018-07-08T14:40:16.808Z,36.30
2018-07-08T14:42:45.439Z,36.30
2018-07-08T14:45:14.117Z,36.30
2018-07-08T14:47:46.019Z,36.30
2018-07-08T14:50:14.715Z,36.30
2018-07-08T14:52:43.414Z,36.20
2018-07-08T14:55:12.044Z,36.20
2018-07-08T14:57:40.744Z,36.20
2018-07-08T15:00:09.494Z,36.10
2018-07-08T15:02:38.134Z,36.00
2018-07-08T15:05:06.784Z,36.00
2018-07-08T15:07:35.536Z,36.00
2018-07-08T15:10:04.316Z,36.00
2018-07-08T15:12:32.936Z,35.90
2018-07-08T15:15:01.663Z,35.90
2018-07-08T15:17:30.288Z,35.80
2018-07-08T15:19:59.011Z,35.80
2018-07-08T15:24:56.051Z,35.60
2018-07-08T15:27:25.089Z,35.60
2018-07-08T15:30:01.380Z,35.50
2018-07-08T15:32:30.261Z,35.50
2018-07-08T15:35:02.599Z,35.40
2018-07-08T15:37:34.700Z,35.30
2018-07-08T15:40:05.316Z,35.30
2018-07-08T15:42:37.071Z,35.30
2018-07-08T15:45:14.877Z,35.30
2018-07-08T15:47:50.311Z,35.30
2018-07-08T15:50:25.167Z,35.30
2018-07-08T15:52:57.980Z,35.20
2018-07-08T15:55:28.976Z,35.20
2018-07-08T15:57:58.132Z,35.10
2018-07-08T16:00:27.431Z,35.10
2018-07-08T16:02:56.101Z,35.00
2018-07-08T16:05:26.865Z,34.90
2018-07-08T16:07:55.841Z,34.90
2018-07-08T16:10:24.637Z,34.90
2018-07-08T16:12:53.372Z,34.80
2018-07-08T16:15:22.487Z,34.70
2018-07-08T16:17:51.408Z,34.80
2018-07-08T16:20:20.778Z,34.70
2018-07-08T16:22:50.110Z,34.70
2018-07-08T16:25:18.779Z,34.60
2018-07-08T16:27:47.426Z,34.60
2018-07-08T16:30:16.117Z,34.50
2018-07-08T16:32:44.792Z,34.40
2018-07-08T16:35:13.424Z,34.30
2018-07-08T16:37:42.132Z,34.30
2018-07-08T16:40:13.924Z,34.30
2018-07-08T16:42:43.357Z,34.20
2018-07-08T16:45:12.241Z,34.20
2018-07-08T16:47:41.584Z,34.20
2018-07-08T16:50:10.421Z,34.10
2018-07-08T16:52:39.296Z,34.10
2018-07-08T16:55:07.943Z,34.00
2018-07-08T16:57:36.578Z,34.00
2018-07-08T17:00:06.105Z,34.10
2018-07-08T17:02:34.774Z,34.00
2018-07-08T17:05:03.576Z,33.90
2018-07-08T17:07:32.253Z,33.90
2018-07-08T17:10:01.031Z,33.80
2018-07-08T17:12:29.731Z,33.80
2018-07-08T17:14:58.360Z,33.80
2018-07-08T17:17:27.777Z,33.70
2018-07-08T17:19:56.564Z,33.60
2018-07-08T17:22:25.325Z,33.60
2018-07-08T17:24:53.985Z,33.50
2018-07-08T17:27:22.613Z,33.40
2018-07-08T17:29:51.412Z,33.40
2018-07-08T17:32:20.038Z,33.30
2018-07-08T17:34:48.785Z,33.20
2018-07-08T17:37:17.641Z,33.10
2018-07-08T17:39:46.269Z,33.10
2018-07-08T17:42:14.932Z,33.00
2018-07-08T17:44:43.724Z,32.90
2018-07-08T17:47:12.480Z,32.90
2018-07-08T17:51:05.560Z,32.90
2018-07-08T17:53:34.423Z,32.70
2018-07-08T17:56:03.556Z,32.60
2018-07-08T17:58:32.220Z,32.60
2018-07-08T18:01:00.856Z,32.60
2018-07-08T18:03:29.472Z,32.50
2018-07-08T18:05:58.152Z,32.50
2018-07-08T18:08:26.777Z,32.50
2018-07-08T18:10:55.401Z,32.40
2018-07-08T18:13:24.020Z,32.30
2018-07-08T18:15:52.652Z,32.30
2018-07-08T18:18:21.331Z,32.20
2018-07-08T18:20:49.983Z,32.20
2018-07-08T18:23:18.667Z,32.20
2018-07-08T18:25:47.326Z,32.20
2018-07-08T18:28:15.991Z,32.20
2018-07-08T18:30:44.671Z,32.10
2018-07-08T18:33:13.591Z,32.00
2018-07-08T18:35:42.207Z,32.00
2018-07-08T18:38:10.900Z,31.90
2018-07-08T18:40:39.532Z,31.90
2018-07-08T18:43:08.169Z,31.70
2018-07-08T18:48:06.294Z,31.70
2018-07-08T18:50:35.089Z,31.60
2018-07-08T18:53:05.274Z,31.50
2018-07-08T18:55:34.133Z,31.40
2018-07-08T18:58:03.237Z,31.30
2018-07-08T19:00:32.061Z,31.20
2018-07-08T19:03:00.692Z,31.10
2018-07-08T19:05:29.393Z,31.10
2018-07-08T19:07:58.029Z,30.90
2018-07-08T19:10:26.654Z,30.80
2018-07-08T19:12:59.056Z,30.70
2018-07-08T19:15:30.797Z,30.60
2018-07-08T19:18:00.298Z,30.50
2018-07-08T19:20:29.080Z,30.50
2018-07-08T19:22:57.759Z,30.30
2018-07-08T19:25:26.384Z,30.20
2018-07-08T19:27:54.987Z,30.10
2018-07-08T19:30:23.656Z,30.00
2018-07-08T19:35:35.400Z,29.80
2018-07-08T19:38:04.052Z,29.60
2018-07-08T19:40:32.761Z,29.50
2018-07-08T19:43:02.044Z,29.40
2018-07-08T19:45:30.670Z,29.20
2018-07-08T19:47:59.296Z,29.10
2018-07-08T19:50:28.013Z,29.10
2018-07-08T19:52:56.869Z,29.00
2018-07-08T19:55:25.524Z,29.00
2018-07-08T19:57:54.792Z,28.90
2018-07-08T20:00:23.416Z,28.90
2018-07-08T20:02:55.521Z,28.70
2018-07-08T20:05:24.260Z,28.70
2018-07-08T20:07:52.971Z,28.60
2018-07-08T20:10:21.635Z,28.50
2018-07-08T20:12:50.324Z,28.40
2018-07-08T20:15:19.024Z,28.30
2018-07-08T20:17:47.760Z,28.10
2018-07-08T20:20:17.257Z,28.00
2018-07-08T20:22:45.964Z,27.80
2018-07-08T20:25:14.724Z,27.70
2018-07-08T20:27:43.973Z,27.50
2018-07-08T20:30:14.912Z,27.40
2018-07-08T20:33:13.334Z,27.20
2018-07-08T20:36:11.973Z,27.20
2018-07-08T20:38:58.901Z,27.10
2018-07-08T20:41:35.154Z,26.90
2018-07-08T20:44:14.400Z,26.80
2018-07-08T20:46:47.255Z,26.70
2018-07-08T20:52:13.610Z,26.50
2018-07-08T20:54:42.377Z,26.50
2018-07-08T20:57:11.171Z,26.60
2018-07-08T20:59:53.523Z,26.70
2018-07-08T21:02:49.334Z,26.80
2018-07-08T21:05:19.132Z,26.80
2018-07-08T21:07:51.602Z,26.80
2018-07-08T21:10:36.028Z,26.80
2018-07-08T21:13:13.960Z,26.80
2018-07-08T21:15:58.783Z,26.90
2018-07-08T21:18:33.651Z,26.90
2018-07-08T21:21:05.779Z,26.90
2018-07-08T21:23:40.238Z,27.00
2018-07-08T21:28:45.380Z,26.90
2018-07-08T21:31:31.885Z,27.00
2018-07-08T21:34:14.923Z,27.00
2018-07-08T21:39:25.866Z,27.00
2018-07-08T21:42:05.965Z,27.10
2018-07-08T21:44:50.688Z,27.10
2018-07-08T21:47:37.551Z,27.10
2018-07-08T21:50:18.101Z,27.10
2018-07-08T21:52:58.763Z,27.10
2018-07-08T21:55:40.782Z,27.10
2018-07-08T22:01:22.414Z,27.00
2018-07-08T22:13:26.625Z,26.80
2018-07-08T22:16:24.450Z,26.80
2018-07-08T22:19:09.609Z,26.40
2018-07-08T22:27:18.369Z,26.40
2018-07-08T22:29:47.077Z,26.30
2018-07-08T22:34:44.306Z,26.30
2018-07-08T22:37:12.977Z,26.30
2018-07-08T22:39:41.652Z,26.30
2018-07-08T22:42:10.346Z,26.30
2018-07-08T22:44:39.052Z,26.30
2018-07-08T22:47:07.707Z,26.30
2018-07-08T22:49:36.435Z,26.30
2018-07-08T22:52:05.109Z,26.30
2018-07-08T22:54:33.900Z,26.20
2018-07-08T22:57:02.604Z,26.20
2018-07-08T22:59:39.188Z,26.10
2018-07-08T23:02:18.656Z,26.00
2018-07-08T23:04:47.312Z,26.00
2018-07-08T23:07:16.169Z,26.00
2018-07-08T23:09:44.884Z,26.00
2018-07-08T23:12:13.783Z,26.00
2018-07-08T23:14:42.736Z,25.90
2018-07-08T23:17:11.386Z,25.90
2018-07-08T23:19:40.080Z,26.00
2018-07-08T23:22:08.829Z,25.90
2018-07-08T23:27:06.073Z,25.90
2018-07-08T23:29:34.767Z,25.80
2018-07-08T23:32:03.580Z,25.80
2018-07-08T23:34:32.813Z,25.80
2018-07-08T23:37:01.503Z,25.80
2018-07-08T23:39:31.529Z,25.70
2018-07-08T23:42:00.320Z,25.60
2018-07-08T23:44:29.006Z,25.60
2018-07-08T23:46:57.616Z,25.60
2018-07-08T23:49:26.308Z,25.50
2018-07-08T23:51:55.100Z,25.40
2018-07-08T23:54:23.922Z,25.40
2018-07-08T23:56:52.588Z,25.20
2018-07-08T23:59:21.359Z,25.20
